Time;durP1;ratioP1;P1;durP2;ratioP2;P2;SDS_P1;SDS_P2;PMS_P1;PMS_P2;Temp;Humidity;BMP_temperature;BMP_pressure;BME280_temperature;BME280_humidity;BME280_pressure;Samples;Min_cycle;Max_cycle;Signal;HPM_P1;HPM_P2
2022/10/30 00:01:36;;;;;;;4.58;1.20;;;;;;;10.45;88.21;99865.45;1708601;82;21086;-66
2022/10/30 00:04:03;;;;;;;4.60;1.33;;;;;;;10.44;88.22;99861.96;1709471;83;20976;-65
2022/10/30 00:06:30;;;;;;;;;;;;;;;10.32;88.38;99857.30;1713478;83;20961;-65
2022/10/30 00:08:56;;;;;;;3.57;1.63;;;;;;;10.42;88.31;99879.48;1714610;82;21359;-66
2022/10/30 00:11:23;;;;;;;6.90;1.77;;;;;;;10.40;88.29;99873.47;1710118;82;21682;-66
2022/10/30 00:14:08;;;;;;;6.53;1.30;;;;;;;10.37;88.26;99860.55;1708017;83;22025;-65
2022/10/30 00:16:53;;;;;;;2.87;1.20;;;;;;;10.35;88.24;99851.94;1702994;82;21015;-66
2022/10/30 00:19:20;;;;;;;5.93;1.90;;;;;;;10.33;88.23;99844.62;1706033;82;20995;-66
2022/10/30 00:21:47;;;;;;;5.97;2.30;;;;;;;10.29;88.28;99862.66;1702422;83;21699;-66
2022/10/30 00:24:14;;;;;;;5.28;1.40;;;;;;;10.26;88.34;99866.20;1727341;82;21050;-66
2022/10/30 00:26:59;;;;;;;6.10;1.25;;;;;;;10.24;88.35;99869.80;1694310;83;21008;-66
2022/10/30 00:29:26;;;;;;;4.58;1.50;;;;;;;10.21;88.39;99862.11;1695668;83;21043;-66
2022/10/30 00:31:53;;;;;;;4.73;1.40;;;;;;;10.20;88.41;99858.66;1705738;82;20921;-66
2022/10/30 00:34:20;;;;;;;6.47;1.80;;;;;;;10.19;88.42;99848.27;1707481;82;21450;-66
2022/10/30 00:36:46;;;;;;;9.03;1.42;;;;;;;10.18;88.43;99849.20;1698239;82;21011;-66
2022/10/30 00:39:31;;;;;;;5.85;1.98;;;;;;;10.16;88.43;99856.23;1695352;83;21035;-66
2022/10/30 00:41:58;;;;;;;3.87;1.33;;;;;;;10.13;88.50;99854.60;1713518;82;21098;-65
2022/10/30 00:44:47;;;;;;;15.33;6.33;;;;;;;10.13;88.50;99848.55;1697843;81;21051;-65
2022/10/30 00:47:34;;;;;;;6.25;2.22;;;;;;;10.11;88.56;99859.49;1643176;85;21095;-66
2022/10/30 00:50:09;;;;;;;9.18;3.00;;;;;;;10.09;88.59;99864.33;1683283;84;20912;-66
2022/10/30 00:52:40;;;;;;;3.22;1.40;;;;;;;10.06;88.64;99864.47;1693615;83;20985;-66
2022/10/30 00:55:33;;;;;;;5.35;2.08;;;;;;;10.04;88.63;99853.23;1679993;84;21554;-65
2022/10/30 00:58:03;;;;;;;5.12;1.60;;;;;;;10.03;88.63;99858.08;1687350;83;21064;-65
2022/10/30 01:00:30;;;;;;;10.78;4.75;;;;;;;10.01;88.73;99874.24;1701260;83;21324;-66
2022/10/30 01:02:57;;;;;;;7.20;2.50;;;;;;;9.99;88.74;99859.56;1702386;84;20969;-65
2022/10/30 01:05:46;;;;;;;4.45;1.50;;;;;;;9.97;88.74;99854.44;1687204;83;21118;-66
2022/10/30 01:08:32;;;;;;;7.50;2.08;;;;;;;9.95;88.92;99876.27;1694931;83;21573;-66
2022/10/30 01:11:17;;;;;;;6.60;1.67;;;;;;;9.92;88.91;99868.58;1695761;83;21501;-65
2022/10/30 01:13:48;;;;;;;3.83;1.57;;;;;;;9.89;88.92;99861.73;1697350;84;21168;-65
2022/10/30 01:16:49;;;;;;;4.97;2.45;;;;;;;9.88;88.96;99869.61;1691218;83;21051;-66
2022/10/30 01:19:56;;;;;;;5.22;1.85;;;;;;;9.86;89.01;99870.99;1701487;82;21131;-66
2022/10/30 01:22:55;;;;;;;6.05;1.80;;;;;;;9.83;89.07;99864.57;1696721;83;21564;-66
2022/10/30 01:25:45;;;;;;;4.22;1.92;;;;;;;9.81;89.14;99871.63;1686327;84;21084;-66
2022/10/30 01:29:06;;;;;;;3.87;1.27;;;;;;;9.78;89.18;99866.55;1697615;83;21089;-66
2022/10/30 01:32:02;;;;;;;4.05;1.70;;;;;;;9.74;89.23;99853.23;1683889;84;21029;-65
2022/10/30 01:35:00;;;;;;;6.80;1.50;;;;;;;9.70;89.28;99852.98;1686955;84;21478;-65
2022/10/30 01:37:34;;;;;;;3.55;1.20;;;;;;;9.68;89.41;99853.49;1684061;83;21652;-66
2022/10/30 01:40:14;;;;;;;9.60;3.20;;;;;;;9.66;89.43;99856.15;1698513;83;21075;-66
2022/10/30 01:42:56;;;;;;;9.15;3.15;;;;;;;9.67;89.48;99858.33;1691134;83;21019;-66
2022/10/30 01:45:46;;;;;;;7.28;1.82;;;;;;;9.67;89.54;99858.33;1708226;83;20914;-66
2022/10/30 01:48:53;;;;;;;6.95;2.37;;;;;;;9.68;89.65;99867.83;1705578;82;21020;-66
2022/10/30 01:51:46;;;;;;;7.33;1.62;;;;;;;9.68;89.72;99865.22;1706309;82;20948;-67
2022/10/30 01:54:26;;;;;;;6.55;1.50;;;;;;;9.69;89.68;99864.30;1711050;82;21571;-67
2022/10/30 01:57:39;;;;;;;4.85;1.52;;;;;;;9.67;89.76;99867.45;1694024;82;21939;-64
2022/10/30 02:00:10;;;;;;;7.20;1.67;;;;;;;9.64;89.80;99862.75;1708882;83;21089;-66
2022/10/30 02:02:38;;;;;;;6.10;2.47;;;;;;;9.61;89.77;99857.66;1697634;82;21166;-66
2022/10/30 02:05:08;;;;;;;5.03;1.80;;;;;;;9.57;89.74;99859.14;1710408;82;21020;-66
2022/10/30 02:07:38;;;;;;;4.53;1.80;;;;;;;9.53;89.82;99864.95;1691402;82;20972;-65
2022/10/30 02:10:05;;;;;;;4.62;1.42;;;;;;;9.49;89.84;99863.36;1701040;82;22265;-66
2022/10/30 02:12:50;;;;;;;8.60;1.98;;;;;;;9.46;89.94;99879.58;1699185;83;21022;-66
2022/10/30 02:15:18;;;;;;;6.90;1.70;;;;;;;9.41;89.98;99869.36;1710954;82;20917;-66
2022/10/30 02:17:44;;;;;;;5.90;1.77;;;;;;;9.38;90.02;99861.64;1708728;82;21082;-66
2022/10/30 02:20:17;;;;;;;7.17;2.00;;;;;;;9.35;90.04;99855.25;1712722;82;21006;-65
2022/10/30 02:22:45;;;;;;;5.92;2.02;;;;;;;9.30;90.00;99860.66;1687939;82;21274;-65
2022/10/30 02:25:12;;;;;;;;;;;;;;;9.25;90.02;99853.94;1713756;83;21052;-65
2022/10/30 02:27:39;;;;;;;6.30;2.65;;;;;;;9.21;90.14;99852.34;1707218;82;20954;-65
2022/10/30 02:30:08;;;;;;;3.85;1.60;;;;;;;9.16;90.17;99857.30;1709620;81;22213;-66
2022/10/30 02:32:34;;;;;;;4.95;1.87;;;;;;;9.15;90.39;99872.52;1704543;83;20953;-65
2022/10/30 02:35:01;;;;;;;7.67;1.85;;;;;;;9.12;90.50;99864.82;1697654;83;23147;-66
2022/10/30 02:37:49;;;;;;;4.60;1.90;;;;;;;9.10;90.49;99868.39;1706607;83;20994;-65
2022/10/30 02:40:16;;;;;;;3.50;1.90;;;;;;;9.06;90.40;99855.95;1709834;82;21007;-66
2022/10/30 02:42:43;;;;;;;7.55;1.98;;;;;;;9.03;90.39;99857.38;1710040;82;21905;-66
2022/10/30 02:45:10;;;;;;;5.12;1.70;;;;;;;8.97;90.34;99847.20;1704299;82;21106;-66
2022/10/30 02:47:55;;;;;;;4.78;1.60;;;;;;;8.92;90.32;99851.73;1709842;80;21496;-66
2022/10/30 02:50:40;;;;;;;7.08;1.90;;;;;;;8.87;90.43;99857.56;1690081;82;21069;-66
2022/10/30 02:53:07;;;;;;;6.70;2.10;;;;;;;8.82;90.44;99855.58;1699202;82;21485;-66
2022/10/30 02:55:34;;;;;;;8.63;2.33;;;;;;;8.79;90.51;99855.70;1678805;83;21014;-66
2022/10/30 02:58:01;;;;;;;8.90;2.30;;;;;;;8.74;90.56;99859.34;1664060;85;21897;-66
2022/10/30 03:00:28;;;;;;;8.00;2.42;;;;;;;8.72;90.67;99854.63;1670859;85;21119;-66
2022/10/30 03:02:56;;;;;;;11.83;2.43;;;;;;;8.69;90.69;99869.07;1650883;85;21072;-66
2022/10/30 03:05:24;;;;;;;5.45;1.70;;;;;;;8.66;90.80;99869.19;1663168;85;20963;-66
2022/10/30 03:07:50;;;;;;;;;;;;;;;8.65;90.94;99875.28;1658475;84;21010;-66
2022/10/30 03:10:18;;;;;;;3.65;1.82;;;;;;;8.65;91.04;99870.07;1672908;84;20199;-66
2022/10/30 03:12:44;;;;;;;7.05;2.00;;;;;;;8.61;90.95;99860.69;1654791;85;21548;-66
2022/10/30 03:15:11;;;;;;;5.83;1.85;;;;;;;8.59;90.96;99870.30;1662050;85;21630;-66
2022/10/30 03:17:56;;;;;;;5.25;2.55;;;;;;;8.55;90.97;99868.73;1669827;85;20986;-66
2022/10/30 03:20:23;;;;;;;4.77;2.20;;;;;;;8.51;90.99;99877.54;1667367;84;20963;-66
2022/10/30 03:22:49;;;;;;;9.25;1.90;;;;;;;8.49;91.05;99876.77;1654152;84;21683;-66
2022/10/30 03:25:22;;;;;;;5.23;2.03;;;;;;;8.48;91.17;99872.45;1658533;83;21904;-66
2022/10/30 03:27:44;;;;;;;6.60;2.22;;;;;;;8.47;91.30;99860.36;1673165;84;21045;-65
2022/10/30 03:30:12;;;;;;;5.95;1.90;;;;;;;8.44;91.23;99859.17;1664881;84;21043;-66
2022/10/30 03:32:39;;;;;;;5.33;1.80;;;;;;;8.44;91.34;99855.27;1668937;84;21009;-66
2022/10/30 03:35:24;;;;;;;7.83;2.42;;;;;;;8.43;91.62;99869.16;1673843;84;21017;-66
2022/10/30 03:37:50;;;;;;;6.97;1.95;;;;;;;8.42;91.43;99875.28;1670097;84;21471;-66
2022/10/30 03:40:17;;;;;;;4.20;2.00;;;;;;;8.40;91.39;99871.87;1651664;85;20970;-66
2022/10/30 03:43:03;;;;;;;9.25;2.77;;;;;;;8.34;91.33;99879.87;1663203;84;21365;-65
2022/10/30 03:45:31;;;;;;;6.45;1.70;;;;;;;8.31;91.47;99886.03;1649924;85;21467;-65
2022/10/30 03:48:01;;;;;;;7.10;2.12;;;;;;;8.28;91.49;99879.18;1664480;85;21491;-66
2022/10/30 03:50:28;;;;;;;8.23;2.40;;;;;;;8.25;91.57;99866.28;1667591;84;21131;-66
2022/10/30 03:53:14;;;;;;;6.78;2.02;;;;;;;8.24;91.53;99868.50;1683449;84;21028;-66
2022/10/30 03:55:41;;;;;;;6.72;2.37;;;;;;;8.20;91.62;99870.80;1654192;85;21038;-66
2022/10/30 03:58:08;;;;;;;5.20;1.87;;;;;;;8.18;91.67;99867.42;1685176;83;20958;-66
2022/10/30 04:00:36;;;;;;;7.60;3.12;;;;;;;8.13;91.66;99866.73;1688880;84;21030;-66
2022/10/30 04:03:08;;;;;;;5.53;2.20;;;;;;;8.10;91.62;99866.84;1675652;84;21830;-66
2022/10/30 04:05:53;;;;;;;11.38;2.70;;;;;;;8.03;91.41;99867.94;1672753;84;21084;-66
2022/10/30 04:08:20;;;;;;;7.87;2.52;;;;;;;7.93;91.54;99864.81;1674378;83;21034;-66
2022/10/30 04:10:47;;;;;;;7.40;3.20;;;;;;;7.89;91.61;99872.77;1667677;84;21071;-66
2022/10/30 04:13:16;;;;;;;4.60;2.70;;;;;;;7.87;91.79;99870.66;1671763;84;21143;-66
2022/10/30 04:15:43;;;;;;;8.93;2.55;;;;;;;7.84;91.89;99880.28;1676523;84;22312;-66
2022/10/30 04:18:12;;;;;;;6.30;2.67;;;;;;;7.82;92.05;99871.67;1671511;84;21020;-66
2022/10/30 04:20:39;;;;;;;8.48;2.37;;;;;;;7.82;92.05;99871.67;1680992;83;22147;-67
2022/10/30 04:23:09;;;;;;;6.03;2.33;;;;;;;7.82;92.01;99870.38;1676784;83;21116;-66
2022/10/30 04:25:36;;;;;;;8.25;2.92;;;;;;;7.84;92.06;99871.61;1677359;83;21014;-66
2022/10/30 04:28:03;;;;;;;9.63;3.00;;;;;;;7.87;92.18;99881.05;1678848;83;22339;-66
2022/10/30 04:30:37;;;;;;;7.45;3.00;;;;;;;7.89;92.30;99885.30;1687194;84;21041;-66
2022/10/30 04:33:02;;;;;;;9.08;2.98;;;;;;;7.92;92.40;99876.56;1688468;84;21085;-64
2022/10/30 04:35:47;;;;;;;9.30;3.05;;;;;;;7.95;92.42;99877.75;1667789;83;21013;-65
2022/10/30 04:38:17;;;;;;;10.03;2.25;;;;;;;7.93;92.31;99882.17;1682589;83;21009;-66
2022/10/30 04:40:44;;;;;;;8.58;2.80;;;;;;;7.89;92.22;99888.36;1690854;83;21077;-66
2022/10/30 04:43:12;;;;;;;7.30;3.05;;;;;;;7.81;91.92;99889.48;1691488;83;21022;-65
2022/10/30 04:45:57;;;;;;;4.95;2.98;;;;;;;7.72;91.84;99884.56;1690513;83;20993;-66
2022/10/30 04:48:24;;;;;;;6.28;1.95;;;;;;;7.64;91.91;99887.87;1690748;83;21555;-66
2022/10/30 04:50:51;;;;;;;7.67;3.75;;;;;;;7.59;91.99;99889.79;1668856;83;21043;-66
2022/10/30 04:53:19;;;;;;;8.43;3.70;;;;;;;7.54;92.18;99887.78;1663578;83;21180;-66
2022/10/30 04:55:47;;;;;;;5.85;2.98;;;;;;;7.51;92.44;99898.28;1668603;84;21718;-66
2022/10/30 04:58:14;;;;;;;7.47;2.50;;;;;;;7.49;92.38;99893.11;1661132;83;21055;-65
2022/10/30 05:00:41;;;;;;;8.15;2.90;;;;;;;7.44;92.36;99901.95;1658261;85;21023;-66
2022/10/30 05:03:19;;;;;;;6.03;2.70;;;;;;;7.39;92.43;99908.16;1707470;83;21000;-65
2022/10/30 05:05:48;;;;;;;8.65;2.60;;;;;;;7.38;92.48;99899.95;1705782;82;21782;-66
2022/10/30 05:08:14;;;;;;;6.22;2.62;;;;;;;7.32;92.45;99898.84;1710948;82;20999;-66
2022/10/30 05:10:41;;;;;;;8.03;3.20;;;;;;;7.30;92.64;99891.54;1711143;82;20984;-66
2022/10/30 05:13:11;;;;;;;6.33;3.12;;;;;;;7.29;92.75;99883.36;1710687;82;20988;-67
2022/10/30 05:15:56;;;;;;;10.75;2.83;;;;;;;7.28;92.82;99882.97;1702418;81;20952;-66
2022/10/30 05:18:22;;;;;;;7.30;2.77;;;;;;;7.28;92.84;99887.28;1702906;82;21927;-66
2022/10/30 05:20:49;;;;;;;6.62;2.90;;;;;;;7.26;92.89;99891.25;1704636;82;21043;-66
2022/10/30 05:23:16;;;;;;;8.23;2.67;;;;;;;7.28;93.13;99892.06;1703737;83;20985;-66
2022/10/30 05:26:01;;;;;;;5.37;2.80;;;;;;;7.31;93.35;99894.56;1705764;82;20948;-65
2022/10/30 05:28:29;;;;;;;6.85;3.30;;;;;;;7.33;93.33;99890.14;1689186;82;21043;-66
2022/10/30 05:30:55;;;;;;;6.60;3.05;;;;;;;7.35;93.29;99889.66;1651825;84;21435;-66
2022/10/30 05:33:22;;;;;;;5.30;2.25;;;;;;;7.36;93.32;99888.74;1661134;85;20989;-66
2022/10/30 05:35:48;;;;;;;5.28;3.05;;;;;;;7.39;93.34;99886.50;1670530;84;21094;-66
2022/10/30 05:38:33;;;;;;;8.05;2.77;;;;;;;7.41;93.31;99887.31;1665525;85;21085;-66
2022/10/30 05:41:19;;;;;;;7.10;2.87;;;;;;;7.43;93.33;99889.88;1660197;85;21047;-66
2022/10/30 05:43:45;;;;;;;11.15;4.08;;;;;;;7.44;93.36;99891.56;1664172;85;21920;-66
2022/10/30 05:46:12;;;;;;;5.87;2.77;;;;;;;7.46;93.46;99894.97;1660669;85;20988;-66
2022/10/30 05:48:39;;;;;;;5.25;3.10;;;;;;;7.51;93.62;99898.28;1665106;85;21046;-66
2022/10/30 05:51:07;;;;;;;3.87;2.20;;;;;;;7.54;93.60;99891.68;1676641;84;21020;-66
2022/10/30 05:53:34;;;;;;;10.03;3.60;;;;;;;7.55;93.67;99881.67;1675601;83;21782;-65
2022/10/30 05:56:01;;;;;;;12.53;5.73;;;;;;;7.59;93.70;99880.69;1677265;84;21373;-66
2022/10/30 05:58:28;;;;;;;13.40;7.05;;;;;;;7.65;93.85;99883.09;1683556;83;20981;-66
2022/10/30 06:01:13;;;;;;;102.87;70.42;;;;;;;7.72;94.01;99881.97;1687997;83;21133;-67
2022/10/30 06:03:58;;;;;;;118.00;52.78;;;;;;;7.83;94.09;99885.06;1702188;82;21582;-67
2022/10/30 06:06:25;;;;;;;105.57;48.90;;;;;;;7.92;94.00;99877.86;1682429;83;21065;-67
2022/10/30 06:08:52;;;;;;;45.45;18.45;;;;;;;7.99;94.01;99887.16;1697839;83;21084;-67
2022/10/30 06:11:19;;;;;;;19.17;10.13;;;;;;;8.14;94.33;99887.92;1694716;82;21021;-66
2022/10/30 06:13:47;;;;;;;16.57;8.57;;;;;;;8.66;94.30;99884.80;1699151;84;21570;-67
2022/10/30 06:16:14;;;;;;;12.20;7.92;;;;;;;8.66;94.30;99884.80;1726987;81;21519;-66
2022/10/30 06:18:41;;;;;;;12.37;8.55;;;;;;;8.80;94.11;99894.71;1716419;82;21010;-66
2022/10/30 06:21:08;;;;;;;11.20;6.12;;;;;;;8.89;94.12;99885.70;1721380;82;21925;-66
2022/10/30 06:23:34;;;;;;;8.90;5.10;;;;;;;8.97;94.19;99884.96;1723400;81;21010;-66
2022/10/30 06:26:10;;;;;;;7.47;5.85;;;;;;;9.06;94.29;99878.09;1725164;81;21076;-66
2022/10/30 06:28:38;;;;;;;8.55;5.15;;;;;;;9.13;94.10;99884.77;1720797;81;21630;-66
2022/10/30 06:31:23;;;;;;;6.80;3.50;;;;;;;9.17;94.20;99884.19;1713413;82;20999;-65
2022/10/30 06:33:51;;;;;;;6.03;3.02;;;;;;;9.24;94.27;99896.52;1722431;81;21103;-65
2022/10/30 06:36:18;;;;;;;5.17;2.67;;;;;;;9.28;94.30;99904.16;1723904;81;21074;-66
2022/10/30 06:38:45;;;;;;;5.40;2.92;;;;;;;9.30;94.29;99901.48;1717545;81;21086;-65
2022/10/30 06:41:11;;;;;;;7.25;3.30;;;;;;;9.31;94.35;99904.50;1705318;82;21065;-65
2022/10/30 06:43:38;;;;;;;8.70;3.83;;;;;;;9.38;94.44;99915.06;1717691;81;21054;-65
2022/10/30 06:46:05;;;;;;;10.77;3.53;;;;;;;9.43;94.70;99909.22;1727904;81;21121;-65
2022/10/30 06:48:32;;;;;;;6.33;3.50;;;;;;;9.49;94.80;99902.45;1724320;81;20916;-65
2022/10/30 06:51:01;;;;;;;6.10;3.62;;;;;;;9.56;94.85;99894.80;1716629;81;21016;-65
2022/10/30 06:53:29;;;;;;;7.78;4.12;;;;;;;9.61;94.90;99896.77;1701414;82;21050;-66
2022/10/30 06:56:01;;;;;;;6.28;3.35;;;;;;;9.68;94.98;99912.16;1703875;82;21016;-66
2022/10/30 06:58:46;;;;;;;5.60;4.15;;;;;;;9.76;95.10;99897.05;1697435;83;20918;-65
2022/10/30 07:01:12;;;;;;;5.90;2.90;;;;;;;9.89;95.24;99911.28;1707592;82;20957;-65
2022/10/30 07:03:39;;;;;;;6.65;3.30;;;;;;;9.95;95.13;99901.89;1709210;82;21600;-65
2022/10/30 07:06:07;;;;;;;6.58;3.33;;;;;;;9.98;95.08;99906.98;1703939;82;21556;-65
2022/10/30 07:08:33;;;;;;;11.50;4.47;;;;;;;10.04;95.11;99906.72;1704192;83;20982;-65
2022/10/30 07:11:00;;;;;;;9.00;3.60;;;;;;;10.13;95.23;99908.55;1706515;82;22317;-65
2022/10/30 07:13:27;;;;;;;11.20;4.95;;;;;;;10.19;95.17;99914.80;1708004;82;21469;-65
2022/10/30 07:15:53;;;;;;;5.85;3.37;;;;;;;10.23;95.15;99929.44;1695787;83;21830;-65
2022/10/30 07:18:20;;;;;;;5.10;3.70;;;;;;;10.26;94.99;99918.86;1708209;82;21051;-65
2022/10/30 07:20:47;;;;;;;10.78;5.00;;;;;;;10.26;94.99;99918.86;1699671;82;21074;-65
2022/10/30 07:23:14;;;;;;;7.97;3.97;;;;;;;10.33;95.24;99926.84;1676017;83;21475;-65
2022/10/30 07:25:41;;;;;;;8.67;4.40;;;;;;;10.38;95.26;99932.71;1710029;82;21063;-65
2022/10/30 07:28:07;;;;;;;8.85;4.20;;;;;;;10.44;95.32;99941.58;1708813;82;21123;-65
2022/10/30 07:30:53;;;;;;;8.88;3.90;;;;;;;10.55;95.41;99944.19;1699262;83;21042;-65
2022/10/30 07:33:20;;;;;;;8.67;3.93;;;;;;;10.63;95.43;99939.48;1694720;83;20985;-65
2022/10/30 07:35:47;;;;;;;5.15;3.45;;;;;;;10.72;95.25;99939.07;1709655;82;22339;-64
2022/10/30 07:38:32;;;;;;;6.97;3.75;;;;;;;10.73;95.16;99938.17;1706059;82;20996;-65
2022/10/30 07:41:19;;;;;;;5.00;3.37;;;;;;;10.79;95.23;99932.67;1695585;83;21655;-65
2022/10/30 07:44:04;;;;;;;9.05;3.87;;;;;;;10.88;95.32;99940.09;1710317;83;21051;-65
2022/10/30 07:46:31;;;;;;;7.40;5.00;;;;;;;10.97;95.25;99934.44;1710253;82;21146;-66
2022/10/30 07:48:57;;;;;;;11.33;6.50;;;;;;;11.02;95.11;99932.09;1708580;82;21062;-65
2022/10/30 07:53:43;;;;;;;9.38;6.05;;;;;;;11.26;95.38;99924.43;1873705;75;22707;-64
2022/10/30 07:56:10;;;;;;;9.78;7.45;;;;;;;11.29;95.15;99916.44;1866917;76;20991;-64
2022/10/30 07:58:36;;;;;;;14.58;9.20;;;;;;;11.33;95.07;99926.28;1841758;77;21094;-65
2022/10/30 08:01:21;;;;;;;12.13;8.68;;;;;;;11.39;95.06;99928.14;1834384;76;21497;-66
2022/10/30 08:03:49;;;;;;;12.43;7.03;;;;;;;11.48;95.13;99936.47;1843098;75;20975;-66
2022/10/30 08:06:16;;;;;;;11.57;5.58;;;;;;;11.53;95.10;99927.95;1839631;75;20997;-66
2022/10/30 08:08:42;;;;;;;6.07;3.93;;;;;;;11.58;94.96;99932.50;1841237;76;21526;-66
2022/10/30 08:11:09;;;;;;;7.58;3.80;;;;;;;11.53;94.31;99931.87;1853168;75;21534;-65
2022/10/30 08:13:36;;;;;;;7.42;4.03;;;;;;;11.54;94.60;99938.78;1850873;76;21044;-66
2022/10/30 08:16:03;;;;;;;9.33;4.12;;;;;;;11.52;94.36;99945.88;1853792;77;20902;-66
2022/10/30 08:18:30;;;;;;;8.35;3.42;;;;;;;11.52;94.33;99940.65;1842384;77;21550;-65
2022/10/30 08:20:56;;;;;;;9.48;4.00;;;;;;;11.56;94.56;99938.27;1844401;77;21013;-66
2022/10/30 08:23:25;;;;;;;5.67;3.40;;;;;;;11.65;94.95;99931.30;1822247;76;22748;-66
2022/10/30 08:25:51;;;;;;;7.20;3.45;;;;;;;11.75;94.96;99927.30;1855315;76;21029;-66
2022/10/30 08:28:18;;;;;;;6.22;3.77;;;;;;;11.82;94.71;99920.02;1853927;77;22376;-66
2022/10/30 08:30:45;;;;;;;7.45;3.22;;;;;;;11.85;94.80;99925.97;1854564;76;21072;-66
2022/10/30 08:33:13;;;;;;;;;;;;;;;11.98;95.17;99933.20;1850941;76;20961;-67
2022/10/30 08:35:47;;;;;;;5.33;3.33;;;;;;;12.09;95.03;99925.66;1850394;76;20983;-66
2022/10/30 08:38:14;;;;;;;7.05;3.90;;;;;;;12.23;95.23;99925.80;1841566;75;21554;-65
2022/10/30 08:41:01;;;;;;;7.53;3.87;;;;;;;12.35;94.97;99931.34;1844618;76;21059;-65
2022/10/30 08:43:50;;;;;;;6.17;3.35;;;;;;;12.38;94.57;99928.12;1847034;76;21009;-68
2022/10/30 08:46:35;;;;;;;6.22;3.17;;;;;;;12.39;94.41;99925.03;1857836;76;20961;-65
2022/10/30 08:49:02;;;;;;;6.03;3.10;;;;;;;12.41;94.53;99924.03;1851887;76;21135;-66
2022/10/30 08:51:34;;;;;;;5.75;3.45;;;;;;;12.46;94.50;99918.54;1853823;75;21017;-65
2022/10/30 08:54:06;;;;;;;3.52;2.80;;;;;;;12.47;94.35;99917.63;1857398;77;20894;-67
2022/10/30 08:56:50;;;;;;;6.67;3.45;;;;;;;12.47;94.29;99920.25;1854701;75;21036;-65
2022/10/30 08:59:17;;;;;;;4.53;2.87;;;;;;;12.50;94.34;99922.71;1845133;76;20934;-66
2022/10/30 09:01:44;;;;;;;5.33;3.77;;;;;;;12.45;93.79;99918.17;1857891;75;22016;-65
2022/10/30 09:04:11;;;;;;;8.53;3.52;;;;;;;12.48;94.14;99915.39;1847125;77;21514;-64
2022/10/30 09:06:38;;;;;;;5.53;2.67;;;;;;;12.51;94.06;99919.16;1855696;76;20898;-66
2022/10/30 09:09:05;;;;;;;6.30;3.67;;;;;;;12.50;93.83;99924.02;1837174;77;20962;-66
2022/10/30 09:11:32;;;;;;;6.42;4.22;;;;;;;12.54;93.82;99929.47;1844959;77;20973;-66
2022/10/30 09:13:59;;;;;;;9.58;4.30;;;;;;;12.46;93.23;99931.63;1842664;77;21531;-66
2022/10/30 09:16:25;;;;;;;6.90;3.85;;;;;;;12.51;93.83;99940.11;1824364;78;21009;-66
2022/10/30 09:19:11;;;;;;;5.37;2.60;;;;;;;12.63;94.08;99955.64;1816065;78;21024;-65
2022/10/30 09:21:37;;;;;;;7.17;2.75;;;;;;;12.62;93.19;99961.34;1812067;78;21732;-65
2022/10/30 09:24:06;;;;;;;4.60;2.70;;;;;;;12.53;92.83;99965.77;1775523;78;21032;-65
2022/10/30 09:26:32;;;;;;;6.90;3.22;;;;;;;12.36;92.38;99965.78;1829968;77;21025;-66
2022/10/30 09:29:18;;;;;;;5.08;2.90;;;;;;;12.24;92.57;99957.63;1805905;78;21012;-65
2022/10/30 09:31:44;;;;;;;4.85;2.75;;;;;;;12.25;93.08;99955.37;1814091;78;21005;-66
2022/10/30 09:34:11;;;;;;;4.10;2.60;;;;;;;12.37;93.72;99950.45;1805114;78;21724;-65
2022/10/30 09:36:38;;;;;;;6.33;2.80;;;;;;;12.53;93.96;99946.96;1775441;78;20977;-66
2022/10/30 09:39:07;;;;;;;4.17;2.87;;;;;;;12.60;93.34;99947.48;1761028;78;20997;-66
2022/10/30 09:42:10;;;;;;;7.07;2.50;;;;;;;12.63;92.84;99946.47;1774687;78;21084;-67
2022/10/30 09:44:45;;;;;;;9.35;2.98;;;;;;;12.62;92.98;99944.80;1795369;79;21608;-67
2022/10/30 09:47:23;;;;;;;4.45;2.60;;;;;;;12.74;93.50;99941.08;1791484;79;20973;-64
2022/10/30 09:50:04;;;;;;;7.25;2.72;;;;;;;12.92;93.81;99935.78;1788131;79;21006;-64
2022/10/30 09:53:00;;;;;;;7.10;2.35;;;;;;;13.03;93.39;99941.30;1786177;78;21158;-65
2022/10/30 09:55:58;;;;;;;9.00;2.50;;;;;;;13.06;93.30;99938.98;1783350;78;21550;-65
2022/10/30 09:59:01;;;;;;;6.00;2.50;;;;;;;13.14;93.31;99935.48;1756269;80;21235;-65
2022/10/30 10:01:39;;;;;;;4.22;2.27;;;;;;;13.17;93.31;99937.93;1781418;79;20973;-65
2022/10/30 10:04:30;;;;;;;5.67;2.10;;;;;;;13.28;93.41;99942.16;1779325;78;20996;-66
2022/10/30 10:07:22;;;;;;;5.95;2.67;;;;;;;13.34;93.34;99940.97;1783991;79;21930;-66
2022/10/30 10:09:54;;;;;;;4.37;1.70;;;;;;;13.42;93.28;99954.51;1787496;78;20977;-66
2022/10/30 10:12:44;;;;;;;3.95;1.70;;;;;;;13.47;93.10;99940.68;1783843;78;21060;-66
2022/10/30 10:15:33;;;;;;;3.37;1.67;;;;;;;13.39;92.49;99949.44;1779710;79;21036;-65
2022/10/30 10:18:05;;;;;;;4.15;1.87;;;;;;;13.37;92.45;99946.04;1786840;79;20964;-64
2022/10/30 10:20:40;;;;;;;4.35;1.80;;;;;;;13.45;92.81;99941.22;1787609;78;21164;-66
2022/10/30 10:23:20;;;;;;;2.80;1.70;;;;;;;13.57;92.88;99948.39;1781095;79;20984;-66
2022/10/30 10:26:19;;;;;;;5.67;2.77;;;;;;;13.69;92.80;99947.33;1731407;80;20992;-65
2022/10/30 10:29:22;;;;;;;3.92;1.87;;;;;;;13.79;92.73;99952.44;1726640;81;21256;-66
2022/10/30 10:32:29;;;;;;;3.33;1.75;;;;;;;13.80;92.54;99946.25;1744656;80;21156;-66
2022/10/30 10:35:22;;;;;;;3.62;1.42;;;;;;;13.73;92.02;99948.86;1695281;82;21746;-64
2022/10/30 10:38:04;;;;;;;6.95;1.72;;;;;;;13.66;92.05;99950.49;1710404;82;21089;-65
2022/10/30 10:40:51;;;;;;;2.60;1.52;;;;;;;13.59;91.83;99954.41;1749334;80;20993;-66
2022/10/30 10:43:42;;;;;;;4.50;2.00;;;;;;;13.54;91.89;99945.95;1760158;80;21124;-66
2022/10/30 10:46:32;;;;;;;3.90;1.60;;;;;;;13.55;92.12;99948.94;1705679;82;22151;-65
2022/10/30 10:49:25;;;;;;;4.78;1.55;;;;;;;13.62;92.03;99939.80;1744200;80;21506;-66
2022/10/30 10:51:57;;;;;;;5.55;1.87;;;;;;;13.63;92.04;99944.58;1730121;80;20944;-66
2022/10/30 10:54:38;;;;;;;5.12;2.33;;;;;;;13.63;91.87;99944.11;1735246;81;21012;-66
2022/10/30 10:57:37;;;;;;;2.25;1.40;;;;;;;13.64;91.78;99936.64;1738270;81;21043;-66
2022/10/30 11:00:24;;;;;;;3.75;2.22;;;;;;;13.60;91.50;99942.97;1731262;81;21000;-66
2022/10/30 11:03:13;;;;;;;5.83;2.55;;;;;;;13.64;91.52;99947.60;1761387;78;21237;-66
2022/10/30 11:06:13;;;;;;;3.98;2.00;;;;;;;13.63;91.27;99953.29;1748661;78;20993;-66
2022/10/30 11:08:40;;;;;;;4.75;1.95;;;;;;;13.69;91.37;99949.48;1627153;86;21125;-64
2022/10/30 11:11:25;;;;;;;4.50;1.87;;;;;;;13.77;91.21;99946.42;1625415;86;21188;-66
2022/10/30 11:13:52;;;;;;;7.12;2.50;;;;;;;13.83;91.42;99940.82;1624382;86;21636;-67
2022/10/30 11:16:36;;;;;;;6.80;2.52;;;;;;;13.97;91.53;99947.91;1609080;85;21562;-67
2022/10/30 11:19:07;;;;;;;5.53;3.22;;;;;;;14.12;91.53;99943.56;1627494;85;21195;-64
2022/10/30 11:21:51;;;;;;;4.28;2.33;;;;;;;14.23;91.22;99951.66;1627176;86;21088;-66
2022/10/30 11:24:36;;;;;;;4.58;2.50;;;;;;;14.29;91.04;99949.98;1636109;85;21025;-67
2022/10/30 11:27:29;;;;;;;4.83;2.17;;;;;;;14.36;90.95;99952.61;1636466;86;21176;-68
2022/10/30 11:30:01;;;;;;;4.75;2.70;;;;;;;14.34;90.54;99951.88;1624711;87;21134;-68
2022/10/30 11:32:31;;;;;;;5.85;2.47;;;;;;;14.32;90.47;99951.11;1643933;85;21050;-66
2022/10/30 11:35:12;;;;;;;4.20;1.62;;;;;;;14.35;90.47;99952.24;1650258;85;20946;-67
2022/10/30 11:37:42;;;;;;;3.22;1.40;;;;;;;14.36;90.28;99952.61;1648586;85;21115;-67
2022/10/30 11:40:18;;;;;;;2.77;1.22;;;;;;;14.35;90.22;99945.67;1650476;85;21048;-66
2022/10/30 11:42:58;;;;;;;2.70;1.40;;;;;;;14.29;89.74;99942.10;1650506;85;21970;-66
2022/10/30 11:45:29;;;;;;;4.75;1.77;;;;;;;14.26;89.91;99944.91;1705762;80;20934;-66
2022/10/30 11:47:59;;;;;;;3.83;2.10;;;;;;;14.22;89.76;99942.08;1747534;80;20910;-66
2022/10/30 11:50:31;;;;;;;3.60;1.30;;;;;;;14.18;89.81;99938.79;1783637;80;20933;-66
2022/10/30 11:53:01;;;;;;;5.87;1.52;;;;;;;14.18;89.83;99937.48;1756882;80;20909;-66
2022/10/30 11:55:42;;;;;;;3.85;1.70;;;;;;;14.20;89.89;99939.55;1751063;80;21461;-67
2022/10/30 11:58:28;;;;;;;4.12;1.70;;;;;;;14.21;89.83;99935.14;1779054;78;21555;-67
2022/10/30 12:01:05;;;;;;;3.60;1.80;;;;;;;14.14;89.43;99933.32;1741761;80;21634;-66
2022/10/30 12:03:39;;;;;;;3.55;1.62;;;;;;;14.07;89.42;99935.47;1776905;78;20960;-66
2022/10/30 12:06:11;;;;;;;5.35;2.40;;;;;;;14.01;89.28;99929.27;1715915;80;21647;-66
2022/10/30 12:08:38;;;;;;;3.72;2.27;;;;;;;14.01;89.56;99923.19;1781250;78;21023;-65
2022/10/30 12:11:06;;;;;;;6.33;2.25;;;;;;;14.00;89.20;99932.84;1751732;80;20995;-66
2022/10/30 12:13:56;;;;;;;6.33;2.60;;;;;;;13.98;89.08;99931.24;1743174;80;21578;-66